Time;durP1;ratioP1;P1;durP2;ratioP2;P2;SDS_P1;SDS_P2;PMS_P1;PMS_P2;Temp;Humidity;BMP_temperature;BMP_pressure;BME280_temperature;BME280_humidity;BME280_pressure;Samples;Min_cycle;Max_cycle;Signal;HPM_P1;HPM_P2
2022/12/18 00:02:17;;;;;;;14.60;4.57;;;-2.90;99.90;;;-3.62;100.00;102300.38;5204459;28;20041;-66
2022/12/18 00:04:49;;;;;;;19.50;6.28;;;-2.90;99.90;;;-3.69;100.00;102310.59;5202722;28;20075;-64
2022/12/18 00:07:21;;;;;;;17.50;5.60;;;-2.90;99.90;;;-3.76;100.00;102301.34;5204269;28;20053;-63
2022/12/18 00:09:53;;;;;;;15.05;5.68;;;-3.00;99.90;;;-3.80;100.00;102301.69;5202847;28;20045;-65
2022/12/18 00:12:27;;;;;;;15.60;6.10;;;-3.00;99.90;;;-3.79;100.00;102312.81;5203039;28;20536;-64
2022/12/18 00:14:59;;;;;;;16.08;4.97;;;-3.00;99.90;;;-3.80;100.00;102314.44;5203995;28;20045;-65
2022/12/18 00:17:33;;;;;;;17.65;5.40;;;-3.00;99.90;;;-3.78;100.00;102304.41;5204574;28;20053;-65
2022/12/18 00:20:07;;;;;;;13.77;5.45;;;-3.00;99.90;;;-3.77;100.00;102299.53;5204359;28;20057;-64
2022/12/18 00:22:39;;;;;;;15.18;5.38;;;-3.00;99.90;;;-3.76;100.00;102313.19;5204035;28;20045;-65
2022/12/18 00:25:11;;;;;;;14.45;5.60;;;-3.00;99.90;;;-3.74;100.00;102312.59;5204195;28;20069;-65
2022/12/18 00:27:44;;;;;;;14.55;5.13;;;-3.00;99.90;;;-3.74;100.00;102304.97;5204036;28;20056;-64
2022/12/18 00:30:16;;;;;;;15.50;5.43;;;-3.00;99.90;;;-3.74;100.00;102307.50;5204066;28;20069;-63
2022/12/18 00:32:49;;;;;;;11.65;5.03;;;-3.00;99.90;;;-3.70;100.00;102317.34;5202993;28;20049;-65
2022/12/18 00:35:23;;;;;;;17.48;5.50;;;-3.00;99.90;;;-3.70;100.00;102318.97;5202670;28;20502;-65
2022/12/18 00:37:55;;;;;;;12.77;5.05;;;-3.00;99.90;;;-3.75;100.00;102320.09;5202921;28;20045;-64
2022/12/18 00:40:29;;;;;;;17.67;7.30;;;-3.00;99.90;;;-3.88;100.00;102318.66;5202715;28;20556;-63
2022/12/18 00:43:00;;;;;;;15.45;5.53;;;-3.10;99.90;;;-3.95;100.00;102325.41;5203752;28;20056;-64
2022/12/18 00:45:32;;;;;;;16.17;6.00;;;-3.10;99.90;;;-3.95;100.00;102330.50;5202398;28;20056;-65
2022/12/18 00:48:06;;;;;;;15.10;5.88;;;-3.10;99.90;;;-3.96;100.00;102323.59;5203869;28;20046;-64
2022/12/18 00:50:39;;;;;;;15.98;5.97;;;-3.20;99.90;;;-3.98;100.00;102322.50;5206511;28;20041;-64
2022/12/18 00:53:12;;;;;;;17.08;5.63;;;-3.20;99.90;;;-3.96;100.00;102315.97;5207743;28;20052;-64
2022/12/18 00:55:46;;;;;;;14.23;5.45;;;-3.20;99.90;;;-3.93;100.00;102316.31;5206170;28;20046;-65
2022/12/18 00:58:19;;;;;;;14.25;5.57;;;-3.20;99.90;;;-3.92;100.00;102305.38;5207786;28;20128;-64
2022/12/18 01:00:51;;;;;;;12.45;4.75;;;-3.20;99.90;;;-3.88;100.00;102308.47;5206091;28;20049;-64
2022/12/18 01:03:26;;;;;;;15.23;5.70;;;-3.20;99.90;;;-3.88;100.00;102305.00;5207889;28;20387;-64
2022/12/18 01:05:58;;;;;;;15.52;5.25;;;-3.20;99.90;;;-3.92;100.00;102305.38;5222562;28;20088;-64
2022/12/18 01:08:30;;;;;;;15.43;5.38;;;-3.20;99.90;;;-3.94;100.00;102301.75;5207503;28;20073;-65
2022/12/18 01:11:08;;;;;;;13.15;4.97;;;-3.20;99.90;;;-3.95;100.00;102300.84;5207138;28;20053;-64
2022/12/18 01:13:42;;;;;;;11.65;4.82;;;-3.20;99.90;;;-3.97;100.00;102293.78;5207278;28;20045;-64
2022/12/18 01:16:15;;;;;;;13.98;5.40;;;-3.20;99.90;;;-3.95;100.00;102305.94;5206363;28;20045;-63
2022/12/18 01:18:52;;;;;;;11.55;4.78;;;-3.20;99.90;;;-3.93;100.00;102309.56;5222420;28;20056;-64
2022/12/18 01:21:25;;;;;;;13.73;4.50;;;-3.20;99.90;;;-3.92;100.00;102306.28;5207129;28;20397;-64
2022/12/18 01:23:58;;;;;;;13.93;5.18;;;-3.20;99.90;;;-3.96;100.00;102298.13;5206891;28;20049;-65
2022/12/18 01:26:33;;;;;;;16.27;5.93;;;-3.20;99.90;;;-4.03;100.00;102298.16;5207882;28;20079;-64
2022/12/18 01:29:06;;;;;;;15.20;5.63;;;-3.30;99.90;;;-4.03;100.00;102301.59;5207815;28;20043;-66
2022/12/18 01:31:38;;;;;;;15.68;5.18;;;-3.30;99.90;;;-4.01;100.00;102304.31;5223864;28;20228;-66
2022/12/18 01:34:12;;;;;;;16.73;5.93;;;-3.30;99.90;;;-4.03;100.00;102310.88;5208028;28;20064;-65
2022/12/18 01:36:44;;;;;;;15.25;5.90;;;-3.30;99.90;;;-4.06;100.00;102308.88;5206291;28;20076;-64
2022/12/18 01:39:16;;;;;;;11.55;5.10;;;-3.30;99.90;;;-4.05;100.00;102310.69;5222102;28;20498;-64
2022/12/18 01:42:03;;;;;;;18.42;5.22;;;-3.30;99.90;;;-4.03;100.00;102310.88;5207120;28;20075;-63
2022/12/18 01:45:00;;;;;;;13.63;5.32;;;-3.30;99.90;;;-4.02;100.00;102302.50;5205443;28;20049;-64
2022/12/18 01:47:38;;;;;;;15.75;5.13;;;-3.30;99.90;;;-4.03;100.00;102295.59;5206605;28;20068;-63
2022/12/18 01:50:16;;;;;;;19.85;5.93;;;-3.30;99.90;;;-4.06;100.00;102295.22;5206639;28;20050;-63
2022/12/18 01:52:56;;;;;;;16.88;5.93;;;-3.30;99.90;;;-4.06;100.00;102300.31;5182749;28;20044;-64
2022/12/18 01:55:32;;;;;;;17.75;6.40;;;-3.30;99.90;;;-4.07;100.00;102295.97;5221110;28;20055;-64
2022/12/18 01:58:05;;;;;;;13.25;5.47;;;-3.30;99.90;;;-4.08;100.00;102300.16;5225848;28;20460;-64
2022/12/18 02:00:38;;;;;;;16.65;5.95;;;-3.30;99.90;;;-4.06;100.00;102296.13;5225022;28;20376;-64
2022/12/18 02:03:10;;;;;;;13.18;5.10;;;-3.30;99.90;;;-4.03;100.00;102295.59;5226962;28;20426;-63
2022/12/18 02:05:49;;;;;;;16.85;6.03;;;-3.30;99.90;;;-4.06;100.00;102295.22;5226753;28;20049;-62
2022/12/18 02:08:28;;;;;;;15.55;5.53;;;-3.30;99.90;;;-4.05;100.00;102294.50;5225544;28;20055;-64
2022/12/18 02:11:09;;;;;;;16.70;5.70;;;-3.30;99.90;;;-4.03;100.00;102303.25;5226620;28;20523;-65
2022/12/18 02:13:50;;;;;;;17.83;6.20;;;-3.30;99.90;;;-4.00;100.00;102306.13;5225092;28;20049;-65
2022/12/18 02:16:29;;;;;;;15.63;5.00;;;-3.30;99.90;;;-3.96;100.00;102303.22;5224995;28;20057;-64
2022/12/18 02:19:07;;;;;;;14.63;6.40;;;-3.20;99.90;;;-3.94;100.00;102311.94;5226852;28;20540;-65
2022/12/18 02:21:51;;;;;;;16.50;5.45;;;-3.20;99.90;;;-3.95;100.00;102299.94;5224950;28;20049;-65
2022/12/18 02:24:34;;;;;;;15.60;5.68;;;-3.20;99.90;;;-4.01;100.00;102311.97;5225170;28;20247;-64
2022/12/18 02:27:11;;;;;;;13.65;5.20;;;-3.20;99.90;;;-4.07;100.00;102294.31;5226529;28;20036;-65
2022/12/18 02:29:51;;;;;;;15.45;5.95;;;-3.30;99.90;;;-4.08;100.00;102291.59;5225119;28;20102;-64
2022/12/18 02:32:28;;;;;;;15.95;5.63;;;-3.30;99.90;;;-4.10;100.00;102289.78;5225074;28;20528;-64
2022/12/18 02:35:04;;;;;;;13.63;5.70;;;-3.30;99.90;;;-4.11;100.00;102298.16;5224819;28;20085;-65
2022/12/18 02:37:41;;;;;;;13.88;5.05;;;-3.30;99.90;;;-4.10;100.00;102306.72;5223821;28;20053;-64
2022/12/18 02:40:15;;;;;;;13.27;5.50;;;-3.30;99.90;;;-4.04;100.00;102306.50;5225164;28;20067;-64
2022/12/18 02:42:49;;;;;;;12.38;5.00;;;-3.30;99.90;;;-4.02;100.00;102295.78;5224757;28;20040;-63
2022/12/18 02:45:23;;;;;;;14.43;5.15;;;-3.30;99.90;;;-3.96;100.00;102295.59;5225713;28;20053;-67
2022/12/18 02:47:58;;;;;;;15.27;5.53;;;-3.30;99.90;;;-3.97;100.00;102281.94;5226500;28;20044;-67
2022/12/18 02:50:37;;;;;;;14.43;5.45;;;-3.20;99.90;;;-3.96;100.00;102293.03;5225696;28;20041;-67
2022/12/18 02:53:18;;;;;;;19.92;5.60;;;-3.20;99.90;;;-3.98;100.00;102294.47;5224945;28;20544;-67
2022/12/18 02:56:01;;;;;;;15.70;5.63;;;-3.20;99.90;;;-4.00;100.00;102285.75;5224773;28;20051;-66
2022/12/18 02:58:47;;;;;;;15.98;6.20;;;-3.20;99.90;;;-3.99;100.00;102287.56;5224178;28;20075;-65
2022/12/18 03:01:35;;;;;;;11.35;5.72;;;-3.20;99.90;;;-3.96;100.00;102277.75;5224067;28;20067;-65
2022/12/18 03:04:15;;;;;;;14.90;5.68;;;-3.20;99.90;;;-3.99;100.00;102282.47;5224495;28;20053;-65
2022/12/18 03:06:52;;;;;;;13.98;5.40;;;-3.20;99.90;;;-4.02;100.00;102287.22;5223710;28;20518;-65
2022/12/18 03:09:34;;;;;;;16.67;6.07;;;-3.20;99.90;;;-3.99;100.00;102282.47;5225178;28;20091;-64
2022/12/18 03:12:26;;;;;;;;;;;-3.20;99.90;;;-3.95;100.00;102277.00;5224105;28;20033;-64
2022/12/18 03:15:09;;;;;;;11.20;4.38;;;-3.20;99.90;;;-3.90;100.00;102278.47;5225663;28;19929;-65
2022/12/18 03:17:47;;;;;;;16.98;6.03;;;-3.20;99.90;;;-3.92;100.00;102277.34;5224106;28;20072;-65
2022/12/18 03:20:22;;;;;;;11.73;4.88;;;-3.20;99.90;;;-3.91;100.00;102281.75;5225738;28;20048;-63
2022/12/18 03:23:01;;;;;;;16.30;5.43;;;-3.20;99.90;;;-3.94;100.00;102277.19;5225494;28;20498;-64
2022/12/18 03:25:37;;;;;;;15.57;5.93;;;-3.20;99.90;;;-3.96;100.00;102263.38;5224131;28;20394;-64
2022/12/18 03:28:14;;;;;;;17.73;6.28;;;-3.20;99.90;;;-4.00;100.00;102261.19;5224337;28;20040;-64
2022/12/18 03:30:56;;;;;;;12.98;5.43;;;-3.20;99.90;;;-4.00;100.00;102256.09;5224207;28;20053;-65
2022/12/18 03:33:32;;;;;;;14.48;4.85;;;-3.20;99.90;;;-4.07;100.00;102247.56;5223669;28;20045;-64
2022/12/18 03:36:05;;;;;;;13.88;5.10;;;-3.30;99.90;;;-4.08;100.00;102255.94;5224124;28;20417;-64
2022/12/18 03:38:38;;;;;;;13.15;5.43;;;-3.30;99.90;;;-4.10;100.00;102256.69;5224956;28;20037;-66
2022/12/18 03:41:21;;;;;;;14.38;5.55;;;-3.30;99.90;;;-4.16;100.00;102253.41;5223767;28;20045;-64
2022/12/18 03:44:16;;;;;;;15.05;5.43;;;-3.30;99.90;;;-4.16;100.00;102258.50;5224610;28;20049;-62
2022/12/18 03:47:00;;;;;;;16.38;6.25;;;-3.40;99.90;;;-4.21;100.00;102259.59;5223890;28;20418;-63
2022/12/18 03:49:39;;;;;;;17.38;6.15;;;-3.40;99.90;;;-4.25;100.00;102259.97;5223800;28;20122;-64
2022/12/18 03:52:19;;;;;;;16.75;6.35;;;-3.40;99.90;;;-4.28;100.00;102261.28;5223806;28;20518;-64
2022/12/18 03:54:53;;;;;;;15.20;6.15;;;-3.50;99.90;;;-4.33;100.00;102257.28;5223669;28;20052;-63
2022/12/18 03:57:29;;;;;;;17.88;6.05;;;-3.50;99.90;;;-4.40;100.00;102260.75;5223367;28;20044;-64
2022/12/18 04:00:08;;;;;;;18.15;5.75;;;-3.50;99.90;;;-4.45;100.00;102255.09;5223931;28;20052;-64
2022/12/18 04:02:58;;;;;;;15.23;5.57;;;-3.60;99.90;;;-4.52;100.00;102249.13;5223235;28;20060;-67
2022/12/18 04:05:39;;;;;;;14.48;6.43;;;-3.60;99.90;;;-4.58;100.00;102266.22;5223434;28;20502;-67
2022/12/18 04:08:15;;;;;;;17.85;6.50;;;-3.70;99.90;;;-4.69;100.00;102260.78;5223189;28;20164;-67
2022/12/18 04:10:54;;;;;;;16.48;6.03;;;-3.70;99.90;;;-4.70;100.00;102261.47;5223358;28;20418;-66
2022/12/18 04:13:33;;;;;;;14.88;6.28;;;-3.80;99.90;;;-4.69;100.00;102255.69;5224495;28;20080;-68
2022/12/18 04:16:10;;;;;;;21.67;7.15;;;-3.80;99.90;;;-4.63;100.00;102245.28;5223407;28;20144;-67
2022/12/18 04:18:47;;;;;;;20.15;6.35;;;-3.80;99.90;;;-4.60;100.00;102240.59;5223232;28;20464;-67
2022/12/18 04:21:21;;;;;;;18.63;7.32;;;-3.80;99.90;;;-4.61;100.00;102237.88;5223393;28;20045;-67
2022/12/18 04:23:54;;;;;;;18.83;6.40;;;-3.70;99.90;;;-4.66;100.00;102244.94;5224820;28;20496;-66
2022/12/18 04:26:28;;;;;;;17.52;7.20;;;-3.80;99.90;;;-4.68;100.00;102252.41;5227409;28;20129;-65
2022/12/18 04:29:17;;;;;;;17.50;6.88;;;-3.80;99.90;;;-4.67;100.00;102255.88;5226930;28;20520;-67
2022/12/18 04:31:49;;;;;;;16.90;6.75;;;-3.80;99.90;;;-4.61;100.00;102258.22;5228447;28;20120;-66
2022/12/18 04:34:23;;;;;;;21.60;8.02;;;-3.80;99.90;;;-4.58;100.00;102254.38;5227121;28;20037;-66
2022/12/18 04:36:59;;;;;;;16.27;6.78;;;-3.80;99.90;;;-4.61;100.00;102248.06;5227026;28;20044;-65
2022/12/18 04:39:31;;;;;;;17.17;7.07;;;-3.80;99.90;;;-4.66;100.00;102240.78;5228797;28;20041;-65
2022/12/18 04:42:11;;;;;;;16.85;6.30;;;-3.80;99.90;;;-4.69;100.00;102240.41;5227158;28;20191;-64
2022/12/18 04:44:44;;;;;;;16.42;6.68;;;-3.80;99.90;;;-4.68;100.00;102254.06;5228222;28;20493;-64
2022/12/18 04:47:16;;;;;;;15.80;6.20;;;-3.80;99.90;;;-4.67;100.00;102261.84;5227248;28;20084;-64
2022/12/18 04:49:50;;;;;;;18.27;6.57;;;-3.80;99.90;;;-4.68;100.00;102261.69;5228474;28;20052;-67
2022/12/18 04:52:22;;;;;;;20.40;6.70;;;-3.90;99.90;;;-4.66;100.00;102261.13;5228570;28;20086;-63
2022/12/18 04:54:54;;;;;;;17.42;6.07;;;-3.90;99.90;;;-4.58;100.00;102253.47;5228236;28;20425;-63
2022/12/18 04:57:26;;;;;;;18.65;6.28;;;-3.80;99.90;;;-4.56;100.00;102247.88;5228180;28;20395;-63
2022/12/18 04:59:58;;;;;;;19.65;7.10;;;-3.80;99.90;;;-4.59;100.00;102242.41;5227855;28;20488;-65
2022/12/18 05:02:31;;;;;;;16.20;6.53;;;-3.80;99.90;;;-4.64;100.00;102249.47;5227801;28;20044;-63
2022/12/18 05:05:06;;;;;;;17.13;6.63;;;-3.80;99.90;;;-4.61;100.00;102250.59;5228005;28;20136;-64
2022/12/18 05:07:38;;;;;;;18.02;6.90;;;-3.80;99.90;;;-4.65;100.00;102242.56;5228078;28;20406;-65
2022/12/18 05:10:10;;;;;;;15.60;6.43;;;-3.80;99.90;;;-4.65;100.00;102241.69;5226605;28;20045;-69
2022/12/18 05:15:30;;;;;;;19.58;6.85;;;-3.80;99.90;;;-4.58;100.00;102228.03;5220984;28;20052;-82
2022/12/18 05:18:03;;;;;;;17.88;6.93;;;-3.70;99.90;;;-4.56;100.00;102229.16;5213991;28;20045;-83
2022/12/18 05:20:37;;;;;;;19.73;7.57;;;-3.70;99.90;;;-4.60;100.00;102224.41;5213008;28;20049;-83
2022/12/18 05:23:09;;;;;;;18.02;6.85;;;-3.70;99.90;;;-4.67;100.00;102213.50;5213781;28;20529;-83
2022/12/18 05:25:41;;;;;;;15.23;6.93;;;-3.80;99.90;;;-4.65;100.00;102232.41;5214667;28;20041;-82
2022/12/18 05:28:13;;;;;;;18.70;6.65;;;-3.80;99.90;;;-4.65;100.00;102232.41;5229552;28;20049;-83
2022/12/18 05:30:50;;;;;;;12.85;5.75;;;-3.80;99.90;;;-4.66;100.00;102243.31;5213217;28;20526;-81
2022/12/18 05:33:25;;;;;;;18.58;7.05;;;-3.80;99.90;;;-4.62;100.00;102230.97;5213527;28;20053;-82
2022/12/18 05:36:04;;;;;;;16.73;6.38;;;-3.80;99.90;;;-4.61;100.00;102228.59;5211351;28;20068;-80
2022/12/18 05:38:38;;;;;;;17.95;6.93;;;-3.80;99.90;;;-4.61;100.00;102232.78;5212268;28;20056;-83
2022/12/18 05:41:10;;;;;;;19.65;7.10;;;-3.80;99.90;;;-4.70;100.00;102238.56;5211242;28;20056;-83
2022/12/18 05:43:43;;;;;;;16.23;5.78;;;-3.80;99.90;;;-4.71;100.00;102236.75;5210829;28;20041;-82
2022/12/18 05:46:18;;;;;;;17.17;6.05;;;-3.80;99.90;;;-4.68;100.00;102242.22;5211518;28;20052;-82
2022/12/18 05:48:50;;;;;;;16.33;6.30;;;-3.80;99.90;;;-4.66;100.00;102250.94;5212551;28;20041;-82
2022/12/18 05:51:24;;;;;;;18.02;6.43;;;-3.80;99.90;;;-4.66;100.00;102248.41;5212044;28;20045;-83
2022/12/18 05:53:56;;;;;;;15.55;6.03;;;-3.80;99.90;;;-4.65;100.00;102247.66;5213006;28;20052;-83
2022/12/18 05:56:28;;;;;;;17.02;7.15;;;-3.80;99.90;;;-4.62;100.00;102251.31;5212336;28;20072;-82
2022/12/18 05:59:01;;;;;;;19.80;6.85;;;-3.80;99.90;;;-4.67;100.00;102250.78;5213847;28;20085;-83
2022/12/18 06:01:33;;;;;;;12.65;5.43;;;-3.80;99.90;;;-4.67;100.00;102259.31;5211970;28;20527;-81
2022/12/18 06:04:05;;;;;;;17.67;6.32;;;-3.80;99.90;;;-4.65;100.00;102256.94;5227024;28;20069;-84
2022/12/18 06:06:39;;;;;;;16.92;6.35;;;-3.80;99.90;;;-4.67;100.00;102269.50;5227871;28;20059;-83
2022/12/18 06:09:11;;;;;;;16.05;6.20;;;-3.80;99.90;;;-4.61;100.00;102279.50;5223899;28;20120;-82
2022/12/18 06:11:44;;;;;;;17.70;6.55;;;-3.80;99.90;;;-4.61;100.00;102276.03;5217107;28;20145;-84
2022/12/18 06:14:17;;;;;;;15.25;6.60;;;-3.80;99.90;;;-4.63;100.00;102283.47;5211083;28;20045;-83
2022/12/18 06:16:52;;;;;;;17.20;7.65;;;-3.80;99.90;;;-4.64;100.00;102284.19;5212171;28;20057;-83
2022/12/18 06:19:24;;;;;;;19.00;7.25;;;-3.80;99.90;;;-4.65;100.00;102279.84;5211413;28;20115;-83
2022/12/18 06:21:58;;;;;;;17.08;6.60;;;-3.80;99.90;;;-4.70;100.00;102283.47;5211311;28;20042;-83
2022/12/18 06:24:31;;;;;;;16.58;6.43;;;-3.80;99.90;;;-4.67;100.00;102284.75;5214067;28;20059;-83
2022/12/18 06:27:03;;;;;;;19.52;7.40;;;-3.80;99.90;;;-4.62;100.00;102286.97;5214198;28;20076;-82
2022/12/18 06:29:35;;;;;;;17.50;5.75;;;-3.80;99.90;;;-4.60;100.00;102300.75;5211866;28;20037;-82
2022/12/18 06:32:07;;;;;;;15.90;6.47;;;-3.80;99.90;;;-4.56;100.00;102292.78;5212093;28;20064;-83
2022/12/18 06:34:39;;;;;;;15.73;5.80;;;-3.80;99.90;;;-4.51;100.00;102296.75;5212923;28;20049;-82
2022/12/18 06:37:13;;;;;;;16.13;6.70;;;-3.70;99.90;;;-4.52;100.00;102292.38;5212583;28;20464;-83
2022/12/18 06:39:45;;;;;;;16.75;6.05;;;-3.70;99.90;;;-4.55;100.00;102294.59;5213259;28;20048;-85
2022/12/18 06:42:17;;;;;;;18.10;6.30;;;-3.70;99.90;;;-4.56;100.00;102283.50;5211993;28;20067;-84
2022/12/18 06:44:49;;;;;;;16.70;5.72;;;-3.70;99.90;;;-4.56;100.00;102277.50;5213515;28;20045;-83
2022/12/18 06:47:21;;;;;;;18.42;6.07;;;-3.70;99.90;;;-4.56;100.00;102277.50;5211334;28;20077;-85
2022/12/18 06:49:53;;;;;;;16.65;5.35;;;-3.70;99.90;;;-4.52;100.00;102279.66;5213851;28;20407;-85
2022/12/18 06:52:27;;;;;;;16.20;6.82;;;-3.70;99.90;;;-4.51;100.00;102271.28;5230079;28;20056;-84
2022/12/18 06:55:00;;;;;;;17.70;6.47;;;-3.70;99.90;;;-4.43;100.00;102288.41;5230657;28;20045;-83
2022/12/18 06:57:32;;;;;;;20.20;7.00;;;-3.70;99.90;;;-4.42;100.00;102296.22;5231466;28;20044;-83
2022/12/18 07:00:08;;;;;;;16.27;6.50;;;-3.70;99.90;;;-4.39;100.00;102288.91;5217028;28;20050;-85
2022/12/18 07:02:40;;;;;;;14.38;6.18;;;-3.60;99.90;;;-4.35;100.00;102285.09;5216462;28;20117;-85
2022/12/18 07:05:12;;;;;;;13.32;5.55;;;-3.60;99.90;;;-4.33;100.00;102278.53;5217835;28;20467;-80
2022/12/18 07:07:45;;;;;;;15.05;5.72;;;-3.60;99.90;;;-4.29;100.00;102280.72;5232492;28;20064;-82
2022/12/18 07:10:17;;;;;;;18.58;6.90;;;-3.60;99.90;;;-4.27;100.00;102279.28;5216771;28;20060;-81
2022/12/18 07:12:49;;;;;;;21.83;7.32;;;-3.50;99.90;;;-4.28;100.00;102277.44;5218243;28;20045;-81
2022/12/18 07:15:22;;;;;;;17.67;6.15;;;-3.50;99.90;;;-4.26;100.00;102275.06;5230389;28;20061;-82
2022/12/18 07:17:54;;;;;;;15.52;5.95;;;-3.50;99.90;;;-4.25;100.00;102272.72;5217229;28;20076;-82
2022/12/18 07:20:26;;;;;;;17.42;6.00;;;-3.50;99.90;;;-4.24;100.00;102277.09;5216721;28;20045;-81
2022/12/18 07:22:59;;;;;;;15.10;5.47;;;-3.50;99.90;;;-4.24;100.00;102278.69;5216937;28;20760;-81
2022/12/18 07:25:31;;;;;;;15.35;6.55;;;-3.50;99.90;;;-4.21;100.00;102290.16;5222823;28;20050;-80
2022/12/18 07:28:04;;;;;;;15.55;6.45;;;-3.50;99.90;;;-4.24;100.00;102289.84;5203741;28;20052;-80
2022/12/18 07:30:38;;;;;;;15.30;5.97;;;-3.50;99.90;;;-4.25;100.00;102282.88;5216647;28;20059;-81
2022/12/18 07:33:10;;;;;;;16.73;6.88;;;-3.50;99.90;;;-4.26;100.00;102288.72;5229034;28;20040;-81
2022/12/18 07:35:42;;;;;;;20.02;7.53;;;-3.50;99.90;;;-4.29;100.00;102273.09;5212906;28;20080;-81
2022/12/18 07:38:16;;;;;;;17.25;7.00;;;-3.50;99.90;;;-4.27;100.00;102268.19;5212314;28;20081;-81
2022/12/18 07:40:48;;;;;;;14.43;6.15;;;-3.50;99.90;;;-4.26;100.00;102272.53;5212327;28;20073;-81
2022/12/18 07:43:20;;;;;;;14.90;7.20;;;-3.50;99.90;;;-4.26;100.00;102257.25;5196896;28;20038;-82
2022/12/18 07:45:52;;;;;;;16.23;6.15;;;-3.50;99.90;;;-4.21;100.00;102262.16;5196525;28;20038;-81
2022/12/18 07:48:25;;;;;;;19.52;6.53;;;-3.50;99.90;;;-4.18;100.00;102256.50;5195980;28;20136;-81
2022/12/18 07:50:59;;;;;;;14.70;6.47;;;-3.50;99.90;;;-4.21;100.00;102254.53;5208749;28;20053;-80
2022/12/18 07:53:35;;;;;;;18.55;6.13;;;-3.40;99.90;;;-4.20;100.00;102247.78;5222695;28;20041;-81
2022/12/18 07:56:10;;;;;;;16.75;5.85;;;-3.40;99.90;;;-4.10;100.00;102259.22;5217469;28;20056;-81
2022/12/18 07:58:42;;;;;;;16.75;5.85;;;-3.30;99.90;;;-4.08;100.00;102261.94;5217999;28;20096;-80
2022/12/18 08:01:15;;;;;;;17.35;5.90;;;-3.30;99.90;;;-4.05;100.00;102261.38;5216570;28;20053;-82
2022/12/18 08:03:47;;;;;;;16.10;6.43;;;-3.30;99.90;;;-4.00;100.00;102250.09;5222746;28;20041;-79
2022/12/18 08:06:19;;;;;;;16.33;5.88;;;-3.30;99.90;;;-3.94;100.00;102238.06;5230317;28;20052;-82
2022/12/18 08:08:53;;;;;;;17.00;6.55;;;-3.20;99.90;;;-3.94;100.00;102230.41;5224935;28;20116;-81
2022/12/18 08:11:28;;;;;;;28.88;9.40;;;-3.10;99.90;;;-3.93;100.00;102229.69;5216156;28;20084;-82
2022/12/18 08:14:00;;;;;;;20.50;7.38;;;-3.20;99.90;;;-3.94;100.00;102231.31;5214428;28;20152;-82
2022/12/18 08:16:32;;;;;;;36.28;9.60;;;-3.20;99.90;;;-3.90;100.00;102227.50;5216854;28;20101;-81
2022/12/18 08:19:05;;;;;;;38.70;12.85;;;-3.10;99.90;;;-3.85;100.00;102231.47;5215204;28;20045;-82
2022/12/18 08:21:45;;;;;;;38.22;14.00;;;-3.10;99.90;;;-3.80;100.00;102235.44;5216857;28;20048;-79
2022/12/18 08:24:19;;;;;;;30.17;9.82;;;-3.10;99.90;;;-3.84;100.00;102226.56;5214801;28;20049;-80
2022/12/18 08:26:51;;;;;;;24.15;9.68;;;-3.10;99.90;;;-3.84;100.00;102213.81;5215234;28;20076;-79
2022/12/18 08:29:23;;;;;;;20.20;7.00;;;-3.00;99.90;;;-3.77;100.00;102205.22;5216075;28;20100;-81
2022/12/18 08:31:55;;;;;;;19.85;6.55;;;-3.00;99.90;;;-3.75;100.00;102202.84;5216106;28;20511;-79
2022/12/18 08:34:28;;;;;;;22.27;8.23;;;-2.90;99.90;;;-3.70;100.00;102215.38;5216174;28;20068;-83
2022/12/18 08:37:00;;;;;;;17.60;6.57;;;-3.00;99.90;;;-3.67;100.00;102207.16;5216544;28;20079;-83
2022/12/18 08:39:34;;;;;;;19.42;7.10;;;-2.90;99.90;;;-3.57;100.00;102210.03;5216981;28;20096;-83
2022/12/18 08:44:52;;;;;;;20.10;7.20;;;-2.80;99.90;;;-3.51;100.00;102203.09;5195564;28;20054;-81
2022/12/18 08:47:25;;;;;;;26.77;8.23;;;-2.80;99.90;;;-3.50;100.00;102214.19;5229924;28;20045;-80
2022/12/18 08:49:57;;;;;;;18.17;6.90;;;-2.80;99.90;;;-3.52;100.00;102208.94;5215769;28;20060;-82
2022/12/18 08:52:29;;;;;;;19.13;7.05;;;-2.80;99.90;;;-3.42;100.00;102206.66;5216372;28;20049;-82
2022/12/18 08:55:03;;;;;;;19.10;7.45;;;-2.70;99.90;;;-3.39;100.00;102221.38;5215007;28;20050;-84
2022/12/18 08:57:35;;;;;;;20.73;7.70;;;-2.70;99.90;;;-3.32;100.00;102204.41;5209083;28;20053;-80
2022/12/18 09:00:09;;;;;;;17.88;8.07;;;-2.60;99.90;;;-3.26;100.00;102201.66;5208513;28;20053;-81
2022/12/18 09:02:41;;;;;;;22.27;7.55;;;-2.60;99.90;;;-3.22;100.00;102200.34;5209316;28;20045;-83
2022/12/18 09:05:13;;;;;;;16.40;6.57;;;-2.50;99.90;;;-3.18;100.00;102197.41;5210547;28;20041;-83
2022/12/18 09:07:46;;;;;;;18.45;7.20;;;-2.50;99.90;;;-3.21;100.00;102197.94;5217489;28;20698;-83
2022/12/18 09:10:19;;;;;;;17.55;6.55;;;-2.40;99.90;;;-3.16;100.00;102201.91;5225100;28;20052;-84
2022/12/18 09:12:51;;;;;;;19.88;6.55;;;-2.40;99.90;;;-3.05;100.00;102201.47;5211646;28;20045;-81
2022/12/18 09:15:23;;;;;;;17.33;7.40;;;-2.30;99.90;;;-2.91;100.00;102204.66;5211504;28;20060;-82
2022/12/18 09:17:55;;;;;;;19.75;7.50;;;-2.30;99.90;;;-2.85;100.00;102202.78;5212248;28;20101;-83
2022/12/18 09:20:29;;;;;;;18.20;7.28;;;-2.20;99.90;;;-2.76;100.00;102203.78;5209873;28;20046;-81
2022/12/18 09:23:01;;;;;;;20.45;8.77;;;-2.10;99.90;;;-2.68;100.00;102200.41;5209650;28;20507;-82
2022/12/18 09:25:35;;;;;;;25.42;8.68;;;-2.00;99.90;;;-2.65;100.00;102203.31;5228975;28;20045;-81
2022/12/18 09:28:11;;;;;;;17.50;6.72;;;-2.00;99.90;;;-2.59;100.00;102201.44;5229213;28;20072;-83
2022/12/18 09:30:47;;;;;;;16.75;7.18;;;-1.90;99.90;;;-2.66;100.00;102198.03;5213043;28;20053;-85
2022/12/18 09:33:19;;;;;;;20.58;7.07;;;-1.90;99.90;;;-2.65;100.00;102177.78;5229017;28;20064;-82
2022/12/18 09:35:51;;;;;;;17.80;6.30;;;-1.90;99.90;;;-2.59;100.00;102178.47;5213127;28;20050;-83
2022/12/18 09:38:23;;;;;;;21.17;7.75;;;-1.90;99.90;;;-2.51;100.00;102180.19;5212668;28;20052;-82
2022/12/18 09:41:01;;;;;;;17.63;7.32;;;-1.80;99.90;;;-2.37;100.00;102173.09;5211325;28;20061;-77
2022/12/18 09:43:42;;;;;;;20.17;8.10;;;-1.70;99.90;;;-1.92;100.00;102178.03;5212786;28;20132;-82
2022/12/18 09:46:20;;;;;;;20.45;7.45;;;-1.30;99.90;;;-1.78;100.00;102181.13;5220893;28;20053;-84
2022/12/18 09:48:55;;;;;;;15.57;6.70;;;-1.10;99.90;;;-1.67;100.00;102168.75;5211042;28;20065;-82
2022/12/18 09:51:34;;;;;;;19.15;7.63;;;-1.00;99.90;;;-1.69;100.00;102160.03;5213006;28;20041;-82
2022/12/18 09:54:13;;;;;;;21.20;7.65;;;-1.00;99.90;;;-1.66;100.00;102168.00;5212039;28;20056;-83
2022/12/18 09:56:47;;;;;;;19.13;7.30;;;-1.00;99.90;;;-1.64;100.00;102175.81;5216146;28;20049;-84
2022/12/18 09:59:26;;;;;;;19.63;7.20;;;-1.00;99.90;;;-1.58;99.14;102168.78;5218309;28;20071;-83
2022/12/18 10:01:58;;;;;;;18.40;8.02;;;-1.00;99.90;;;-1.56;98.53;102154.53;5216420;28;20052;-84
2022/12/18 10:04:35;;;;;;;14.45;6.57;;;-1.00;99.90;;;-1.46;98.25;102149.63;5218872;28;20042;-84
2022/12/18 10:07:15;;;;;;;19.88;7.80;;;-0.90;99.90;;;-1.48;97.10;102148.56;5218455;28;20045;-85
2022/12/18 10:09:55;;;;;;;17.42;7.15;;;-0.90;99.90;;;-1.43;97.58;102147.41;5216434;28;20041;-84
2022/12/18 10:12:39;;;;;;;22.70;7.95;;;-0.90;99.90;;;-1.36;96.64;102148.94;5215531;28;20042;-82
2022/12/18 10:15:17;;;;;;;17.20;7.20;;;-0.80;99.90;;;-1.31;95.94;102147.72;5214278;28;20045;-84
2022/12/18 10:17:57;;;;;;;21.02;7.82;;;-0.70;99.90;;;-1.31;95.19;102144.28;5214238;28;20080;-83
2022/12/18 10:20:38;;;;;;;16.13;6.75;;;-0.70;99.90;;;-1.27;95.16;102155.00;5216111;28;20378;-83
2022/12/18 10:23:21;;;;;;;18.67;7.28;;;-0.70;99.90;;;-1.22;94.90;102145.25;5215809;28;20044;-85
2022/12/18 10:26:01;;;;;;;18.17;7.28;;;-0.60;99.90;;;-1.18;95.30;102137.09;5214898;28;20053;-83
2022/12/18 10:28:38;;;;;;;23.83;8.52;;;-0.60;99.90;;;-1.08;95.43;102139.88;5215694;28;20052;-83
2022/12/18 10:31:17;;;;;;;20.40;8.73;;;-0.50;99.90;;;-0.93;94.76;102122.59;5216195;28;20037;-82
2022/12/18 10:33:49;;;;;;;23.25;8.15;;;-0.40;99.90;;;-0.88;93.75;102129.09;5216028;28;20049;-83
2022/12/18 10:36:22;;;;;;;21.85;8.27;;;-0.40;99.90;;;-0.79;93.71;102124.00;5216418;28;20060;-82
2022/12/18 10:38:54;;;;;;;23.10;8.93;;;-0.30;99.90;;;-0.73;92.12;102132.28;5231387;28;20056;-85